Vails Gate, New York
Current Conditions -  °F | °C
As of 2:45 AM on Saturday 25 Oct 2014 (Local Time) from KSWF Reporting Station
Clear Clear  
Wind Chill: 37°   Ceiling: Unl
Heat Index: 41°   Visibility: 10mi
Dew Point: 41°   Wind: 6mph
Humidity: 100%   Direction: 290°WNW
Pressure: 29.86"   Gusts: NA
Location:  41.46°N, 74.05°W
Report Text: KSWF 250645Z 29005KT 10SM SKC 05/05 A2986
Loading
Personal Weather Stations






























Interactive Weather Map
Tropical Storm Tracking
New forecast layout! Learn more

10-Day Weather Forecast

Advertisements
Track Severe Weather on mobile